createdAt,value
2023-01-06T00:01:15.769Z,100440.88
2023-01-06T00:03:44.082Z,100441.81
2023-01-06T00:06:13.236Z,100440.84
2023-01-06T00:08:41.261Z,100428.84
2023-01-06T00:11:10.220Z,100436.50
2023-01-06T00:13:38.769Z,100434.94
2023-01-06T00:16:07.810Z,100436.19
2023-01-06T00:18:37.216Z,100434.41
2023-01-06T00:21:05.951Z,100442.84
2023-01-06T00:23:33.848Z,100436.72
2023-01-06T00:26:01.745Z,100430.56
2023-01-06T00:28:29.810Z,100428.91
2023-01-06T00:30:57.766Z,100358.00
2023-01-06T00:33:26.025Z,100419.69
2023-01-06T00:35:59.768Z,100423.09
2023-01-06T00:38:27.503Z,100414.72
2023-01-06T00:40:55.135Z,100420.41
2023-01-06T00:43:22.814Z,100414.53
2023-01-06T00:45:50.579Z,100420.28
2023-01-06T00:48:18.673Z,100415.31
2023-01-06T00:50:46.393Z,100417.41
2023-01-06T00:53:16.829Z,100417.91
2023-01-06T00:55:44.484Z,100423.81
2023-01-06T00:58:12.140Z,100414.44
2023-01-06T01:00:40.047Z,100413.38
2023-01-06T01:03:07.877Z,100409.13
2023-01-06T01:05:35.567Z,100407.25
2023-01-06T01:08:03.257Z,100397.00
2023-01-06T01:10:32.274Z,100400.25
2023-01-06T01:13:00.086Z,100400.88
2023-01-06T01:15:27.950Z,100412.94
2023-01-06T01:17:55.732Z,100406.78
2023-01-06T01:20:23.735Z,100387.81
2023-01-06T01:22:51.458Z,100410.00
2023-01-06T01:25:19.151Z,100408.38
2023-01-06T01:27:48.165Z,100399.00
2023-01-06T01:30:15.900Z,100402.75
2023-01-06T01:32:43.557Z,100403.88
2023-01-06T01:35:11.825Z,100408.13
2023-01-06T01:37:40.434Z,100400.28
2023-01-06T01:40:09.406Z,100402.59
2023-01-06T01:42:37.135Z,100409.09
2023-01-06T01:45:07.933Z,100399.94
2023-01-06T01:47:49.995Z,100401.03
2023-01-06T01:50:25.916Z,100396.38
2023-01-06T01:52:57.329Z,100397.84
2023-01-06T01:55:28.162Z,100394.31
2023-01-06T01:58:00.595Z,100401.88
2023-01-06T02:00:29.787Z,100403.03
2023-01-06T02:02:58.211Z,100403.63
2023-01-06T02:05:28.296Z,100397.97
2023-01-06T02:07:58.327Z,100398.16
2023-01-06T02:10:26.302Z,100403.00
2023-01-06T02:12:58.831Z,100399.84
2023-01-06T02:15:30.069Z,100396.66
2023-01-06T02:18:26.881Z,100399.56
2023-01-06T02:21:19.043Z,100395.53
2023-01-06T02:24:23.891Z,100400.28
2023-01-06T02:27:11.437Z,100400.72
2023-01-06T02:30:01.379Z,100399.50
2023-01-06T02:33:03.225Z,100398.47
2023-01-06T02:35:49.478Z,100399.19
2023-01-06T02:38:27.984Z,100394.53
2023-01-06T02:41:10.823Z,100393.69
2023-01-06T02:43:47.466Z,100396.84
2023-01-06T02:46:28.658Z,100399.69
2023-01-06T02:49:12.029Z,100392.84
2023-01-06T02:51:50.305Z,100401.56
2023-01-06T02:54:24.535Z,100395.28
2023-01-06T02:57:01.662Z,100398.91
2023-01-06T02:59:34.984Z,100403.44
2023-01-06T03:02:05.636Z,100396.69
2023-01-06T03:04:40.082Z,100389.00
2023-01-06T03:07:09.744Z,100360.66
2023-01-06T03:09:39.822Z,100389.53
2023-01-06T03:12:15.351Z,100396.22
2023-01-06T03:14:47.491Z,100387.81
2023-01-06T03:17:15.552Z,100393.94
2023-01-06T03:19:45.798Z,100390.81
2023-01-06T03:22:16.863Z,100389.25
2023-01-06T03:24:46.295Z,100396.75
2023-01-06T03:27:16.241Z,100381.22
2023-01-06T03:29:44.245Z,100369.28
2023-01-06T03:32:19.393Z,100378.09
2023-01-06T03:35:09.527Z,100345.91
2023-01-06T03:37:51.290Z,100380.94
2023-01-06T03:40:29.711Z,100379.50
2023-01-06T03:43:14.031Z,100365.97
2023-01-06T03:46:10.114Z,100368.28
2023-01-06T03:48:54.003Z,100373.72
2023-01-06T03:51:37.930Z,100368.09
2023-01-06T03:54:14.644Z,100373.19
2023-01-06T03:56:46.084Z,100363.91
2023-01-06T03:59:19.291Z,100358.75
2023-01-06T04:01:51.161Z,100360.47
2023-01-06T04:04:20.556Z,100359.84
2023-01-06T04:06:50.429Z,100357.09
2023-01-06T04:09:18.243Z,100350.03
2023-01-06T04:12:04.178Z,100346.09
2023-01-06T04:14:34.887Z,100348.63
2023-01-06T04:17:03.396Z,100343.75
2023-01-06T04:19:31.245Z,100341.06
2023-01-06T04:22:01.026Z,100343.13
2023-01-06T04:24:31.399Z,100347.84
2023-01-06T04:26:59.064Z,100347.78
2023-01-06T04:29:27.164Z,100347.44
2023-01-06T04:31:56.859Z,100331.00
2023-01-06T04:34:24.719Z,100342.06
2023-01-06T04:36:54.030Z,100329.78
2023-01-06T04:39:23.040Z,100327.47
2023-01-06T04:41:50.684Z,100323.84
2023-01-06T04:44:18.314Z,100325.91
2023-01-06T04:46:45.977Z,100321.56
2023-01-06T04:49:13.624Z,100310.97
2023-01-06T04:51:41.353Z,100317.31
2023-01-06T04:54:08.991Z,100307.78
2023-01-06T04:56:37.992Z,100311.31
2023-01-06T04:59:05.665Z,100304.63
2023-01-06T05:01:33.527Z,100299.53
2023-01-06T05:04:02.226Z,100298.72
2023-01-06T05:06:30.014Z,100297.25
2023-01-06T05:08:57.684Z,100301.47
2023-01-06T05:11:27.177Z,100306.72
2023-01-06T05:13:56.129Z,100296.94
2023-01-06T05:16:26.943Z,100291.09
2023-01-06T05:18:55.658Z,100291.31
2023-01-06T05:21:24.751Z,100298.84
2023-01-06T05:23:53.600Z,100321.94
2023-01-06T05:26:23.559Z,100314.44
2023-01-06T05:28:51.721Z,100317.75
2023-01-06T05:31:21.232Z,100320.81
2023-01-06T05:33:48.852Z,100331.06
2023-01-06T05:36:17.690Z,100331.63
2023-01-06T05:38:46.323Z,100337.56
2023-01-06T05:41:13.961Z,100336.38
2023-01-06T05:43:42.634Z,100328.53
2023-01-06T05:46:12.094Z,100317.69
2023-01-06T05:48:41.706Z,100344.16
2023-01-06T05:51:12.735Z,100332.66
2023-01-06T05:53:41.947Z,100330.03
2023-01-06T05:56:11.513Z,100332.31
2023-01-06T05:58:41.014Z,100333.44
2023-01-06T06:01:17.243Z,100329.25
2023-01-06T06:03:47.158Z,100341.25
2023-01-06T06:06:14.821Z,100332.34
2023-01-06T06:08:42.425Z,100329.56
2023-01-06T06:11:12.077Z,100330.63
2023-01-06T06:13:40.665Z,100331.38
2023-01-06T06:16:10.259Z,100335.94
2023-01-06T06:18:42.696Z,100341.50
2023-01-06T06:21:13.277Z,100339.19
2023-01-06T06:23:41.438Z,100342.25
2023-01-06T06:26:11.177Z,100352.50
2023-01-06T06:28:39.845Z,100340.63
2023-01-06T06:31:07.978Z,100344.47
2023-01-06T06:33:36.331Z,100342.00
2023-01-06T06:36:06.108Z,100335.28
2023-01-06T06:38:35.094Z,100270.00
2023-01-06T06:41:02.752Z,100343.91
2023-01-06T06:43:30.483Z,100346.22
2023-01-06T06:45:58.261Z,100347.03
2023-01-06T06:48:26.200Z,100342.63
2023-01-06T06:51:00.383Z,100343.50
2023-01-06T06:53:28.476Z,100336.31
2023-01-06T06:55:58.476Z,100346.50
2023-01-06T06:58:26.216Z,100339.50
2023-01-06T07:00:54.228Z,100346.94
2023-01-06T07:03:22.806Z,100339.28
2023-01-06T07:05:52.805Z,100358.28
2023-01-06T07:08:20.621Z,100357.28
2023-01-06T07:10:48.315Z,100349.56
2023-01-06T07:13:17.284Z,100365.75
2023-01-06T07:15:45.119Z,100364.22
2023-01-06T07:18:12.864Z,100371.59
2023-01-06T07:20:40.559Z,100364.94
2023-01-06T07:23:08.250Z,100371.00
2023-01-06T07:25:35.935Z,100382.38
2023-01-06T07:28:06.968Z,100376.16
2023-01-06T07:30:37.396Z,100378.16
2023-01-06T07:33:05.692Z,100375.59
2023-01-06T07:35:33.314Z,100374.84
2023-01-06T07:38:05.204Z,100291.22
2023-01-06T07:40:32.879Z,100378.38
2023-01-06T07:43:04.433Z,100385.31
2023-01-06T07:45:32.346Z,100398.03
2023-01-06T07:48:01.612Z,100402.75
2023-01-06T07:50:29.608Z,100396.59
2023-01-06T07:52:58.908Z,100412.22
2023-01-06T07:55:26.615Z,100415.19
2023-01-06T07:57:54.626Z,100408.19
2023-01-06T08:00:22.573Z,100410.19
2023-01-06T08:02:50.401Z,100407.81
2023-01-06T08:05:19.849Z,100420.41
2023-01-06T08:07:47.504Z,100412.63
2023-01-06T08:10:15.298Z,100421.50
2023-01-06T08:12:43.263Z,100423.00
2023-01-06T08:15:11.621Z,100429.69
2023-01-06T08:17:39.215Z,100423.72
2023-01-06T08:20:07.767Z,100436.00
2023-01-06T08:22:36.992Z,100430.88
2023-01-06T08:25:04.959Z,100432.53
2023-01-06T08:27:32.647Z,100437.88
2023-01-06T08:30:00.345Z,100438.53
2023-01-06T08:32:28.031Z,100450.78
2023-01-06T08:34:56.180Z,100448.22
2023-01-06T08:37:23.964Z,100445.72
2023-01-06T08:39:52.960Z,100447.78
2023-01-06T08:42:20.751Z,100444.72
2023-01-06T08:44:48.476Z,100433.03
2023-01-06T08:47:16.126Z,100432.59
2023-01-06T08:49:43.696Z,100433.19
2023-01-06T08:52:11.401Z,100441.56
2023-01-06T08:54:39.093Z,100455.16
2023-01-06T08:57:09.035Z,100442.22
2023-01-06T08:59:37.102Z,100434.56
2023-01-06T09:02:05.067Z,100441.00
2023-01-06T09:04:32.762Z,100430.09
2023-01-06T09:07:00.598Z,100426.75
2023-01-06T09:09:28.294Z,100425.75
2023-01-06T09:11:56.042Z,100416.25
2023-01-06T09:14:25.035Z,100410.75
2023-01-06T09:16:52.759Z,100420.19
2023-01-06T09:19:20.963Z,100410.19
2023-01-06T09:21:48.634Z,100400.78
2023-01-06T09:24:16.746Z,100406.78
2023-01-06T09:26:44.524Z,100406.63
2023-01-06T09:29:12.190Z,100402.31
2023-01-06T09:31:41.232Z,100410.69
2023-01-06T09:34:09.487Z,100416.09
2023-01-06T09:36:37.130Z,100421.03
2023-01-06T09:39:04.961Z,100426.69
2023-01-06T09:42:01.633Z,100429.13
2023-01-06T09:44:32.660Z,100440.13
2023-01-06T09:47:03.842Z,100435.72
2023-01-06T09:49:42.541Z,100432.47
2023-01-06T09:52:18.255Z,100434.44
2023-01-06T09:54:53.072Z,100426.88
2023-01-06T09:57:29.850Z,100427.03
2023-01-06T10:00:00.957Z,100369.28
2023-01-06T10:02:34.591Z,100426.50
2023-01-06T10:05:02.452Z,100429.69
2023-01-06T10:07:39.991Z,100433.84
2023-01-06T10:10:22.011Z,100440.25
2023-01-06T10:13:04.458Z,100435.63
2023-01-06T10:15:41.500Z,100443.31
2023-01-06T10:18:25.036Z,100443.81
2023-01-06T10:21:01.552Z,100442.97
2023-01-06T10:23:49.033Z,100446.19
2023-01-06T10:26:26.751Z,100445.19
2023-01-06T10:28:58.239Z,100439.13
2023-01-06T10:31:29.641Z,100441.13
2023-01-06T10:33:59.763Z,100437.81
2023-01-06T10:36:32.257Z,100410.34
2023-01-06T10:39:02.003Z,100440.78
2023-01-06T10:41:41.789Z,100441.72
2023-01-06T10:44:11.909Z,100440.94
2023-01-06T10:46:40.433Z,100437.66
2023-01-06T10:49:16.488Z,100442.03
2023-01-06T10:51:48.939Z,100441.63
2023-01-06T10:54:21.994Z,100440.88
2023-01-06T10:56:54.942Z,100438.75
2023-01-06T10:59:22.707Z,100442.84
2023-01-06T11:01:51.832Z,100432.81
2023-01-06T11:04:21.587Z,100430.94
2023-01-06T11:06:52.208Z,100437.47
2023-01-06T11:09:27.236Z,100440.22
2023-01-06T11:11:57.181Z,100445.22
2023-01-06T11:14:29.564Z,100424.88
2023-01-06T11:16:59.370Z,100427.44
2023-01-06T11:19:37.008Z,100427.50
2023-01-06T11:22:05.768Z,100427.31
2023-01-06T11:24:33.733Z,100425.63
2023-01-06T11:27:09.830Z,100417.91
2023-01-06T11:29:37.415Z,100417.03
2023-01-06T11:32:14.202Z,100413.78
2023-01-06T11:34:52.482Z,100419.72
2023-01-06T11:37:31.354Z,100419.66
2023-01-06T11:40:05.642Z,100421.88
2023-01-06T11:45:08.077Z,100414.22
2023-01-06T11:47:35.980Z,100411.47
2023-01-06T11:50:06.304Z,100397.66
2023-01-06T11:52:35.345Z,100391.06
2023-01-06T11:55:20.141Z,100381.69
2023-01-06T11:57:56.870Z,100370.34
2023-01-06T12:00:48.921Z,100385.53
2023-01-06T12:03:25.495Z,100389.91
2023-01-06T12:06:01.510Z,100384.22
2023-01-06T12:08:34.182Z,100388.13
2023-01-06T12:11:08.339Z,100375.53
2023-01-06T12:13:44.188Z,100377.34
2023-01-06T12:16:17.407Z,100368.63
2023-01-06T12:18:45.221Z,100375.09
2023-01-06T12:21:20.206Z,100375.41
2023-01-06T12:23:49.888Z,100374.31
2023-01-06T12:26:23.954Z,100383.47
2023-01-06T12:28:55.957Z,100372.66
2023-01-06T12:31:29.371Z,100374.28
2023-01-06T12:34:01.999Z,100379.03
2023-01-06T12:36:38.630Z,100379.00
2023-01-06T12:39:13.723Z,100368.31
2023-01-06T12:41:48.767Z,100369.75
2023-01-06T12:44:24.717Z,100361.72
2023-01-06T12:47:00.045Z,100375.19
2023-01-06T12:49:36.283Z,100382.97
2023-01-06T12:52:09.959Z,100374.50
2023-01-06T12:54:38.603Z,100377.75
2023-01-06T12:57:21.244Z,100376.28
2023-01-06T13:00:04.519Z,100339.47
2023-01-06T13:02:53.137Z,100377.91
2023-01-06T13:05:44.827Z,100370.78
2023-01-06T13:08:27.511Z,100381.47
2023-01-06T13:11:05.488Z,100379.44
2023-01-06T13:13:49.909Z,100381.75
2023-01-06T13:16:23.243Z,100381.97
2023-01-06T13:19:01.995Z,100379.41
2023-01-06T13:21:33.140Z,100377.69
2023-01-06T13:24:22.268Z,100380.31
2023-01-06T13:27:17.205Z,100374.53
2023-01-06T13:29:57.997Z,100373.00
2023-01-06T13:32:43.086Z,100370.84
2023-01-06T13:35:44.793Z,100375.63
2023-01-06T13:38:48.657Z,100369.03
2023-01-06T13:41:21.867Z,100371.47
2023-01-06T13:43:52.127Z,100367.22
2023-01-06T13:46:22.820Z,100364.78
2023-01-06T13:48:53.554Z,100369.63
2023-01-06T13:51:25.808Z,100369.50
2023-01-06T13:53:54.713Z,100372.66
2023-01-06T13:56:29.533Z,100375.41
2023-01-06T13:59:20.368Z,100387.34
2023-01-06T14:01:48.861Z,100383.28
2023-01-06T14:04:45.846Z,100384.66
2023-01-06T14:07:14.887Z,100391.94
2023-01-06T14:09:49.740Z,100387.47
2023-01-06T14:12:22.856Z,100382.75
2023-01-06T14:14:59.435Z,100388.06
2023-01-06T14:17:30.888Z,100391.88
2023-01-06T14:19:59.201Z,100389.84
2023-01-06T14:22:29.619Z,100401.97
2023-01-06T14:25:00.903Z,100399.38
2023-01-06T14:28:10.099Z,100395.09
2023-01-06T14:30:38.062Z,100392.66
2023-01-06T14:33:24.664Z,100387.63
2023-01-06T14:36:02.719Z,100393.88
2023-01-06T14:38:35.905Z,100396.63
2023-01-06T14:41:06.026Z,100402.03
2023-01-06T14:43:43.799Z,100398.22
2023-01-06T14:46:19.558Z,100396.13
2023-01-06T14:48:56.245Z,100390.88
2023-01-06T14:51:25.404Z,100382.22
2023-01-06T14:53:59.688Z,100378.19
2023-01-06T14:56:34.051Z,100379.19
2023-01-06T14:59:15.443Z,100382.81
2023-01-06T15:01:44.968Z,100383.84
2023-01-06T15:04:27.845Z,100383.78
2023-01-06T15:07:00.365Z,100391.91
2023-01-06T15:09:28.518Z,100382.00
2023-01-06T15:11:56.609Z,100383.34
2023-01-06T15:14:27.398Z,100395.81
2023-01-06T15:16:56.916Z,100391.84
2023-01-06T15:19:25.605Z,100394.59
2023-01-06T15:21:54.586Z,100354.09
2023-01-06T15:24:24.361Z,100394.94
2023-01-06T15:26:53.564Z,100401.72
2023-01-06T15:29:23.181Z,100400.25
2023-01-06T15:31:53.864Z,100397.28
2023-01-06T15:34:24.888Z,100368.81
2023-01-06T15:36:55.261Z,100393.13
2023-01-06T15:39:28.013Z,100385.91
2023-01-06T15:41:57.320Z,100389.34
2023-01-06T15:44:29.934Z,100387.19
2023-01-06T15:47:07.704Z,100388.66
2023-01-06T15:49:39.219Z,100330.50
2023-01-06T15:52:23.289Z,100387.56
2023-01-06T15:54:52.537Z,100393.81
2023-01-06T15:57:20.576Z,100391.56
2023-01-06T15:59:57.162Z,100384.16
2023-01-06T16:02:29.932Z,100390.81
2023-01-06T16:04:59.362Z,100386.53
2023-01-06T16:07:48.248Z,100386.59
2023-01-06T16:10:33.309Z,100391.94
2023-01-06T16:13:19.837Z,100392.59
2023-01-06T16:15:49.270Z,100375.88
2023-01-06T16:18:27.298Z,100403.47
2023-01-06T16:20:55.409Z,100397.50
2023-01-06T16:23:30.248Z,100401.72
2023-01-06T16:26:11.534Z,100398.47
2023-01-06T16:28:47.636Z,100400.03
2023-01-06T16:31:28.509Z,100411.00
2023-01-06T16:34:15.050Z,100404.28
2023-01-06T16:36:42.923Z,100384.78
2023-01-06T16:39:10.933Z,100406.53
2023-01-06T16:41:38.600Z,100411.53
2023-01-06T16:44:06.219Z,100418.31
2023-01-06T16:46:33.901Z,100417.22
2023-01-06T16:49:11.354Z,100421.00
2023-01-06T16:51:39.672Z,100416.75
2023-01-06T16:54:11.599Z,100413.19
2023-01-06T16:56:39.716Z,100417.66
2023-01-06T16:59:12.345Z,100382.44
2023-01-06T17:01:40.456Z,100421.84
2023-01-06T17:04:12.269Z,100413.00
2023-01-06T17:06:41.545Z,100415.94
2023-01-06T17:09:18.097Z,100418.81
2023-01-06T17:11:46.692Z,100419.25
2023-01-06T17:14:16.493Z,100421.16
2023-01-06T17:16:47.204Z,100421.34
2023-01-06T17:19:20.423Z,100384.59
2023-01-06T17:21:49.569Z,100420.78
2023-01-06T17:24:20.877Z,100408.78
2023-01-06T17:26:50.906Z,100411.97
2023-01-06T17:29:21.164Z,100421.44
2023-01-06T17:31:51.058Z,100418.75
2023-01-06T17:34:24.562Z,100421.16
2023-01-06T17:36:56.295Z,100427.13
2023-01-06T17:39:27.001Z,100421.88
2023-01-06T17:42:02.473Z,100432.75
2023-01-06T17:44:36.253Z,100424.72
2023-01-06T17:47:07.061Z,100431.38
2023-01-06T17:49:36.996Z,100428.38
2023-01-06T17:52:15.562Z,100432.75
2023-01-06T17:55:08.192Z,100428.78
2023-01-06T17:57:38.660Z,100430.97
2023-01-06T18:00:17.308Z,100434.03
2023-01-06T18:02:48.506Z,100427.97
2023-01-06T18:05:58.674Z,100430.19
2023-01-06T18:08:27.751Z,100434.59
2023-01-06T18:10:58.785Z,100398.13
2023-01-06T18:13:34.329Z,100426.09
2023-01-06T18:16:02.895Z,100418.75
2023-01-06T18:18:36.426Z,100424.44
2023-01-06T18:21:24.916Z,100416.53
2023-01-06T18:23:53.716Z,100423.22
2023-01-06T18:26:36.870Z,100428.97
2023-01-06T18:29:14.673Z,100431.38
2023-01-06T18:31:43.126Z,100433.47
2023-01-06T18:34:29.657Z,100432.19
2023-01-06T18:37:00.218Z,100439.06
2023-01-06T18:39:30.158Z,100435.44
2023-01-06T18:42:06.035Z,100423.66
2023-01-06T18:44:34.484Z,100440.34
2023-01-06T18:47:02.216Z,100434.72
2023-01-06T18:49:33.650Z,100441.88
2023-01-06T18:52:24.640Z,100444.47
2023-01-06T18:54:52.417Z,100441.13
2023-01-06T18:57:29.182Z,100445.22
2023-01-06T18:59:59.886Z,100346.69
2023-01-06T19:02:37.967Z,100436.41
2023-01-06T19:05:11.664Z,100440.16
2023-01-06T19:07:40.730Z,100435.13
2023-01-06T19:10:24.941Z,100445.94
2023-01-06T19:12:52.642Z,100441.44
2023-01-06T19:15:23.852Z,100445.13
2023-01-06T19:17:53.773Z,100439.69
2023-01-06T19:20:25.753Z,100445.13
2023-01-06T19:22:56.846Z,100450.81
2023-01-06T19:25:32.911Z,100444.91
2023-01-06T19:28:03.642Z,100440.94
2023-01-06T19:30:44.318Z,100446.19
2023-01-06T19:33:34.829Z,100445.59
2023-01-06T19:36:38.401Z,100447.25
2023-01-06T19:39:30.611Z,100439.38
2023-01-06T19:42:14.398Z,100445.28
2023-01-06T19:44:42.430Z,100437.69
2023-01-06T19:47:18.807Z,100437.78
2023-01-06T19:49:52.786Z,100434.03
2023-01-06T19:52:29.794Z,100435.56
2023-01-06T19:55:16.006Z,100425.59
2023-01-06T19:57:48.716Z,100417.34
2023-01-06T20:00:25.817Z,100432.00
2023-01-06T20:02:57.340Z,100437.94
2023-01-06T20:05:25.630Z,100442.47
2023-01-06T20:07:53.358Z,100432.66
2023-01-06T20:10:22.390Z,100431.66
2023-01-06T20:12:50.452Z,100431.22
2023-01-06T20:15:18.339Z,100424.56
2023-01-06T20:17:45.999Z,100420.03
2023-01-06T20:20:13.657Z,100417.19
2023-01-06T20:22:41.348Z,100426.69
2023-01-06T20:25:09.633Z,100431.78
2023-01-06T20:27:38.640Z,100428.91
2023-01-06T20:30:07.215Z,100425.13
2023-01-06T20:32:34.903Z,100426.47
2023-01-06T20:35:02.559Z,100430.00
2023-01-06T20:37:31.809Z,100436.88
2023-01-06T20:40:00.551Z,100434.28
2023-01-06T20:42:28.398Z,100427.13
2023-01-06T20:44:57.459Z,100421.16
2023-01-06T20:47:25.114Z,100435.69
2023-01-06T20:49:53.237Z,100430.34
2023-01-06T20:52:20.897Z,100434.81
2023-01-06T20:54:48.640Z,100438.00
2023-01-06T20:57:16.297Z,100421.75
2023-01-06T20:59:43.940Z,100421.25
2023-01-06T21:02:13.047Z,100422.09
2023-01-06T21:04:40.747Z,100426.69
2023-01-06T21:07:08.379Z,100425.19
2023-01-06T21:09:36.079Z,100409.41
2023-01-06T21:12:03.823Z,100397.19
2023-01-06T21:14:32.284Z,100410.88
2023-01-06T21:16:59.906Z,100416.53
2023-01-06T21:19:29.134Z,100420.34
2023-01-06T21:21:56.842Z,100420.41
2023-01-06T21:24:25.292Z,100410.94
2023-01-06T21:26:53.354Z,100407.56
2023-01-06T21:29:21.266Z,100400.44
2023-01-06T21:31:48.998Z,100394.69
2023-01-06T21:34:16.615Z,100397.13
2023-01-06T21:36:45.715Z,100400.25
2023-01-06T21:39:13.440Z,100391.13
2023-01-06T21:41:58.921Z,100394.91
2023-01-06T21:44:26.542Z,100401.09
2023-01-06T21:46:54.199Z,100386.06
2023-01-06T21:49:21.826Z,100389.47
2023-01-06T21:51:52.084Z,100399.19
2023-01-06T21:54:19.847Z,100405.88
2023-01-06T21:56:47.700Z,100416.25
2023-01-06T21:59:15.383Z,100406.91
2023-01-06T22:01:43.122Z,100414.72
2023-01-06T22:04:10.790Z,100407.66
2023-01-06T22:06:42.688Z,100406.28
2023-01-06T22:09:15.835Z,100411.53
2023-01-06T22:11:44.627Z,100412.81
2023-01-06T22:14:14.014Z,100407.41
2023-01-06T22:16:42.425Z,100413.06
2023-01-06T22:19:12.416Z,100413.13
2023-01-06T22:21:42.431Z,100409.47
2023-01-06T22:24:15.122Z,100409.66
2023-01-06T22:26:42.854Z,100408.00
2023-01-06T22:29:11.005Z,100411.78
2023-01-06T22:31:38.838Z,100408.78
2023-01-06T22:34:07.756Z,100415.16
2023-01-06T22:36:35.845Z,100401.72
2023-01-06T22:39:03.590Z,100407.34
2023-01-06T22:41:32.659Z,100405.91
2023-01-06T22:44:00.273Z,100405.97
2023-01-06T22:46:28.222Z,100407.00
2023-01-06T22:48:55.883Z,100405.38
2023-01-06T22:51:23.572Z,100410.75
2023-01-06T22:53:51.807Z,100407.50
2023-01-06T22:56:19.454Z,100409.56
2023-01-06T22:58:48.425Z,100408.56
2023-01-06T23:01:16.560Z,100399.84
2023-01-06T23:03:44.259Z,100407.69
2023-01-06T23:06:13.765Z,100403.44
2023-01-06T23:08:58.427Z,100399.31
2023-01-06T23:11:28.322Z,100398.09
2023-01-06T23:13:58.608Z,100395.03
2023-01-06T23:16:28.902Z,100406.22
2023-01-06T23:18:56.655Z,100407.91
2023-01-06T23:21:26.562Z,100408.97
2023-01-06T23:23:54.773Z,100407.69
2023-01-06T23:26:25.044Z,100402.84
2023-01-06T23:28:53.023Z,100407.91
2023-01-06T23:31:24.521Z,100415.81
2023-01-06T23:33:55.702Z,100410.31
2023-01-06T23:36:24.524Z,100399.81
2023-01-06T23:38:52.707Z,100405.31
2023-01-06T23:41:22.496Z,100325.91
2023-01-06T23:43:51.218Z,100397.84
2023-01-06T23:46:20.627Z,100386.44
2023-01-06T23:48:50.534Z,100400.72
2023-01-06T23:51:18.887Z,100389.97
2023-01-06T23:53:47.203Z,100394.00
2023-01-06T23:56:16.176Z,100383.34
2023-01-06T23:58:46.441Z,100385.31
